createdAt,value
2017-04-20T00:00:03.701Z,1
2017-04-20T00:01:13.812Z,1.02
2017-04-20T00:02:23.999Z,1
2017-04-20T00:03:33.721Z,0.96
2017-04-20T00:04:43.473Z,0.93
2017-04-20T00:05:53.196Z,0.96
2017-04-20T00:07:03.380Z,0.93
2017-04-20T00:08:13.437Z,0.96
2017-04-20T00:09:23.836Z,0.93
2017-04-20T00:10:33.606Z,1
2017-04-20T00:11:43.712Z,0.93
2017-04-20T00:12:53.485Z,0.84
2017-04-20T00:14:03.579Z,0.97
2017-04-20T00:15:13.946Z,0.93
2017-04-20T00:16:23.677Z,0.85
2017-04-20T00:17:33.402Z,0.88
2017-04-20T00:18:43.198Z,0.82
2017-04-20T00:19:53.258Z,0.82
2017-04-20T00:21:03.726Z,0.82
2017-04-20T00:22:13.476Z,0.79
2017-04-20T00:23:23.200Z,0.84
2017-04-20T00:24:33.279Z,0.78
2017-04-20T00:25:43.382Z,0.64
2017-04-20T00:26:53.431Z,0.67
2017-04-20T00:28:03.287Z,0.63
2017-04-20T00:29:12.902Z,0.57
2017-04-20T00:30:22.654Z,0.57
2017-04-20T00:31:32.813Z,0.57
2017-04-20T00:32:43.168Z,0.6
2017-04-20T00:33:53.243Z,0.57
2017-04-20T00:35:02.634Z,0.54
2017-04-20T00:36:12.406Z,0.63
2017-04-20T00:37:22.152Z,0.56
2017-04-20T00:38:32.236Z,0.63
2017-04-20T00:39:42.334Z,0.58
2017-04-20T00:40:52.452Z,0.61
2017-04-20T00:42:02.521Z,0.48
2017-04-20T00:43:12.699Z,0.45
2017-04-20T00:44:23.224Z,0.43
2017-04-20T00:45:33.004Z,0.49
2017-04-20T00:46:43.076Z,0.43
2017-04-20T00:47:52.479Z,0.36
2017-04-20T00:49:02.562Z,0.33
2017-04-20T00:50:12.615Z,0.45
2017-04-20T00:51:22.032Z,0.39
2017-04-20T00:52:31.860Z,0.4
2017-04-20T00:53:41.587Z,0.36
2017-04-20T00:54:51.725Z,0.33
2017-04-20T00:56:01.786Z,0.25
2017-04-20T00:57:11.843Z,0.24
2017-04-20T00:58:21.317Z,0.21
2017-04-20T00:59:31.045Z,0.2
2017-04-20T01:00:41.135Z,0.17
2017-04-20T01:01:51.505Z,0.06
2017-04-20T01:03:01.231Z,0.05
2017-04-20T01:04:10.974Z,0.05
2017-04-20T01:05:20.698Z,0.02
2017-04-20T01:06:30.527Z,0.03
2017-04-20T01:07:40.908Z,0.05
2017-04-20T01:08:51.033Z,0.01
2017-04-20T01:10:01.190Z,-0.04
2017-04-20T01:11:11.456Z,0.02
2017-04-20T01:12:21.589Z,-0.01
2017-04-20T01:13:31.978Z,0.03
2017-04-20T01:14:42.064Z,0.11
2017-04-20T01:15:52.244Z,0.02
2017-04-20T01:17:02.345Z,0.05
2017-04-20T01:18:11.744Z,-0.02
2017-04-20T01:19:22.126Z,0.05
2017-04-20T01:20:31.914Z,-0.01
2017-04-20T01:21:41.738Z,-0.02
2017-04-20T01:22:51.527Z,-0.13
2017-04-20T01:24:01.308Z,-0.17
2017-04-20T01:25:11.004Z,-0.15
2017-04-20T01:26:20.492Z,-0.16
2017-04-20T01:27:30.554Z,-0.09
2017-04-20T01:28:40.287Z,-0.12
2017-04-20T01:29:50.350Z,-0.13
2017-04-20T01:31:00.495Z,-0.09
2017-04-20T01:32:09.961Z,-0.15
2017-04-20T01:33:20.024Z,-0.15
2017-04-20T01:34:29.750Z,-0.2
2017-04-20T01:35:39.925Z,-0.16
2017-04-20T01:36:49.961Z,-0.2
2017-04-20T01:37:59.685Z,-0.16
2017-04-20T01:39:09.878Z,-0.16
2017-04-20T01:40:19.944Z,-0.25
2017-04-20T01:41:30.004Z,-0.25
2017-04-20T01:42:40.454Z,-0.33
2017-04-20T01:43:50.569Z,-0.23
2017-04-20T01:45:00.309Z,-0.15
2017-04-20T01:46:10.035Z,-0.23
2017-04-20T01:47:20.141Z,-0.31
2017-04-20T01:48:30.507Z,-0.22
2017-04-20T01:49:40.576Z,-0.3
2017-04-20T01:50:50.418Z,-0.22
2017-04-20T01:52:00.470Z,-0.27
2017-04-20T01:53:10.273Z,-0.23
2017-04-20T01:54:20.522Z,-0.33
2017-04-20T01:55:30.599Z,-0.2
2017-04-20T01:56:40.676Z,-0.27
2017-04-20T01:57:50.414Z,-0.31
2017-04-20T01:59:00.492Z,-0.28
2017-04-20T02:00:10.543Z,-0.22
2017-04-20T02:01:20.617Z,-0.2
2017-04-20T02:02:30.975Z,-0.34
2017-04-20T02:03:40.817Z,-0.22
2017-04-20T02:04:50.967Z,-0.25
2017-04-20T02:06:01.005Z,-0.25
2017-04-20T02:07:10.735Z,-0.23
2017-04-20T02:08:20.856Z,-0.23
2017-04-20T02:09:30.933Z,-0.25
2017-04-20T02:10:41.035Z,-0.22
2017-04-20T02:11:51.545Z,-0.33
2017-04-20T02:13:01.759Z,-0.4
2017-04-20T02:14:10.818Z,-0.31
2017-04-20T02:15:20.883Z,-0.27
2017-04-20T02:16:30.614Z,-0.31
2017-04-20T02:17:40.642Z,-0.3
2017-04-20T02:18:50.763Z,-0.34
2017-04-20T02:20:00.169Z,-0.35
2017-04-20T02:21:09.897Z,-0.35
2017-04-20T02:22:19.666Z,-0.35
2017-04-20T02:23:29.358Z,-0.3
2017-04-20T02:24:39.459Z,-0.31
2017-04-20T02:25:49.294Z,-0.33
2017-04-20T02:26:59.017Z,-0.31
2017-04-20T02:28:08.800Z,-0.34
2017-04-20T02:29:19.226Z,-0.27
2017-04-20T02:30:29.342Z,-0.27
2017-04-20T02:31:39.458Z,-0.31
2017-04-20T02:32:49.200Z,-0.31
2017-04-20T02:33:58.927Z,-0.38
2017-04-20T02:35:09.047Z,-0.35
2017-04-20T02:36:19.162Z,-0.38
2017-04-20T02:37:28.889Z,-0.35
2017-04-20T02:38:38.672Z,-0.35
2017-04-20T02:39:48.788Z,-0.33
2017-04-20T02:40:59.426Z,-0.45
2017-04-20T02:42:40.742Z,-0.49
2017-04-20T02:43:50.174Z,-0.46
2017-04-20T02:44:59.976Z,-0.51
2017-04-20T02:46:10.339Z,-0.53
2017-04-20T02:47:20.160Z,-0.56
2017-04-20T02:48:30.235Z,-0.59
2017-04-20T02:49:40.304Z,-0.46
2017-04-20T02:50:50.050Z,-0.46
2017-04-20T02:52:00.080Z,-0.51
2017-04-20T02:53:09.846Z,-0.59
2017-04-20T02:54:19.239Z,-0.53
2017-04-20T02:55:29.028Z,-0.52
2017-04-20T02:56:38.757Z,-0.6
2017-04-20T02:57:49.112Z,-0.7
2017-04-20T02:58:59.000Z,-0.74
2017-04-20T03:00:09.075Z,-0.74
2017-04-20T03:01:19.196Z,-0.82
2017-04-20T03:02:29.213Z,-0.78
2017-04-20T03:03:39.250Z,-0.88
2017-04-20T03:04:49.312Z,-0.84
2017-04-20T03:05:59.099Z,-0.84
2017-04-20T03:07:09.292Z,-0.73
2017-04-20T03:08:18.700Z,-0.76
2017-04-20T03:09:29.107Z,-0.84
2017-04-20T03:10:39.176Z,-0.74
2017-04-20T03:11:49.248Z,-0.77
2017-04-20T03:12:58.992Z,-0.7
2017-04-20T03:14:09.042Z,-0.67
2017-04-20T03:15:19.154Z,-0.81
2017-04-20T03:16:29.213Z,-0.67
2017-04-20T03:17:39.062Z,-0.77
2017-04-20T03:18:49.163Z,-0.71
2017-04-20T03:19:59.347Z,-0.71
2017-04-20T03:21:09.390Z,-0.6
2017-04-20T03:22:19.454Z,-0.66
2017-04-20T03:23:29.548Z,-0.66
2017-04-20T03:24:38.966Z,-0.7
2017-04-20T03:25:49.075Z,-0.63
2017-04-20T03:26:59.511Z,-0.58
2017-04-20T03:28:09.570Z,-0.63
2017-04-20T03:29:19.631Z,-0.59
2017-04-20T03:30:29.358Z,-0.69
2017-04-20T03:31:39.491Z,-0.63
2017-04-20T03:32:49.532Z,-0.67
2017-04-20T03:33:59.664Z,-0.63
2017-04-20T03:35:09.435Z,-0.6
2017-04-20T03:36:19.172Z,-0.67
2017-04-20T03:37:29.247Z,-0.63
2017-04-20T03:38:39.726Z,-0.63
2017-04-20T03:39:49.125Z,-0.69
2017-04-20T03:40:58.947Z,-0.59
2017-04-20T03:42:09.065Z,-0.63
2017-04-20T03:43:18.842Z,-0.59
2017-04-20T03:44:28.868Z,-0.6
2017-04-20T03:45:39.005Z,-0.63
2017-04-20T03:46:48.902Z,-0.58
2017-04-20T03:47:59.153Z,-0.58
2017-04-20T03:49:09.217Z,-0.63
2017-04-20T03:50:19.687Z,-0.6
2017-04-20T03:51:29.763Z,-0.69
2017-04-20T03:52:39.886Z,-0.55
2017-04-20T03:53:49.635Z,-0.58
2017-04-20T03:54:59.453Z,-0.66
2017-04-20T03:56:09.512Z,-0.7
2017-04-20T03:57:19.385Z,-0.7
2017-04-20T03:58:29.465Z,-0.73
2017-04-20T03:59:39.271Z,-0.76
2017-04-20T04:00:48.991Z,-0.74
2017-04-20T04:01:59.362Z,-0.81
2017-04-20T04:03:09.118Z,-0.87
2017-04-20T04:04:19.234Z,-0.87
2017-04-20T04:05:29.311Z,-0.87
2017-04-20T04:06:39.521Z,-0.87
2017-04-20T04:07:49.893Z,-0.88
2017-04-20T04:08:59.636Z,-0.85
2017-04-20T04:10:09.043Z,-0.85
2017-04-20T04:11:19.232Z,-0.85
2017-04-20T04:12:29.391Z,-0.85
2017-04-20T04:13:39.880Z,-0.92
2017-04-20T04:14:50.042Z,-0.89
2017-04-20T04:16:00.104Z,-0.89
2017-04-20T04:17:10.224Z,-0.91
2017-04-20T04:18:20.338Z,-0.88
2017-04-20T04:19:30.504Z,-0.88
2017-04-20T04:20:40.618Z,-0.89
2017-04-20T04:21:50.528Z,-0.85
2017-04-20T04:23:00.706Z,-0.88
2017-04-20T04:24:10.768Z,-0.92
2017-04-20T04:25:20.461Z,-0.89
2017-04-20T04:26:30.520Z,-0.89
2017-04-20T04:27:40.587Z,-0.92
2017-04-20T04:28:50.701Z,-0.89
2017-04-20T04:30:00.474Z,-0.91
2017-04-20T04:31:10.314Z,-0.88
2017-04-20T04:32:20.390Z,-0.89
2017-04-20T04:33:30.121Z,-0.89
2017-04-20T04:34:39.864Z,-0.89
2017-04-20T04:35:49.967Z,-0.92
2017-04-20T04:37:00.326Z,-0.88
2017-04-20T04:38:10.388Z,-0.91
2017-04-20T04:39:20.568Z,-0.87
2017-04-20T04:40:30.682Z,-0.81
2017-04-20T04:41:40.774Z,-0.84
2017-04-20T04:42:50.964Z,-0.87
2017-04-20T04:44:01.102Z,-0.88
2017-04-20T04:45:11.255Z,-0.88
2017-04-20T04:46:21.355Z,-0.88
2017-04-20T04:47:31.515Z,-0.89
2017-04-20T04:48:41.591Z,-0.85
2017-04-20T04:49:51.004Z,-0.85
2017-04-20T04:51:00.447Z,-0.82
2017-04-20T04:52:09.879Z,-0.84
2017-04-20T04:53:20.052Z,-0.82
2017-04-20T04:54:30.619Z,-0.71
2017-04-20T04:55:40.414Z,-0.76
2017-04-20T04:56:50.600Z,-0.74
2017-04-20T04:58:00.552Z,-0.77
2017-04-20T04:59:10.301Z,-0.81
2017-04-20T05:00:20.667Z,-0.73
2017-04-20T05:01:30.216Z,-0.73
2017-04-20T05:02:39.945Z,-0.77
2017-04-20T05:03:50.003Z,-0.71
2017-04-20T05:04:59.635Z,-0.66
2017-04-20T05:06:09.658Z,-0.6
2017-04-20T05:07:19.121Z,-0.63
2017-04-20T05:08:28.550Z,-0.63
2017-04-20T05:09:37.983Z,-0.6
2017-04-20T05:10:47.723Z,-0.6
2017-04-20T05:11:57.794Z,-0.59
2017-04-20T05:13:07.874Z,-0.58
2017-04-20T05:14:17.942Z,-0.63
2017-04-20T05:15:28.004Z,-0.59
2017-04-20T05:16:38.069Z,-0.63
2017-04-20T05:17:48.201Z,-0.64
2017-04-20T05:18:58.352Z,-0.64
2017-04-20T05:20:08.419Z,-0.58
2017-04-20T05:21:18.565Z,-0.56
2017-04-20T05:22:28.785Z,-0.46
2017-04-20T05:23:39.315Z,-0.56
2017-04-20T05:24:49.050Z,-0.51
2017-04-20T05:25:59.168Z,-0.49
2017-04-20T05:27:09.027Z,-0.46
2017-04-20T05:28:19.105Z,-0.48
2017-04-20T05:29:29.462Z,-0.51
2017-04-20T05:30:39.549Z,-0.51
2017-04-20T05:31:49.691Z,-0.46
2017-04-20T05:32:59.461Z,-0.49
2017-04-20T05:34:09.203Z,-0.46
2017-04-20T05:35:20.001Z,-0.27
2017-04-20T05:36:30.074Z,-0.27
2017-04-20T05:37:40.133Z,-0.22
2017-04-20T05:38:50.033Z,-0.19
2017-04-20T05:39:59.820Z,-0.17
2017-04-20T05:41:10.182Z,-0.06
2017-04-20T05:42:19.241Z,-0.01
2017-04-20T05:43:28.995Z,-0.13
2017-04-20T05:44:38.734Z,0.03
2017-04-20T05:45:48.955Z,-0.01
2017-04-20T05:46:59.463Z,0.08
2017-04-20T05:48:09.224Z,0.03
2017-04-20T05:49:18.957Z,0.08
2017-04-20T05:50:28.349Z,0.09
2017-04-20T05:51:38.138Z,0.16
2017-04-20T05:52:48.282Z,0.2
2017-04-20T05:53:58.018Z,0.22
2017-04-20T05:55:08.140Z,0.17
2017-04-20T05:56:17.883Z,0.3
2017-04-20T05:57:28.037Z,0.35
2017-04-20T05:58:38.414Z,0.49
2017-04-20T05:59:48.523Z,0.46
2017-04-20T06:00:58.259Z,0.54
2017-04-20T06:02:08.433Z,0.56
2017-04-20T06:03:18.560Z,0.67
2017-04-20T06:04:28.962Z,0.71
2017-04-20T06:05:38.697Z,0.58
2017-04-20T06:06:48.568Z,0.64
2017-04-20T06:07:58.681Z,0.72
2017-04-20T06:09:08.745Z,0.72
2017-04-20T06:10:18.996Z,0.78
2017-04-20T06:11:28.883Z,0.85
2017-04-20T06:12:38.631Z,0.86
2017-04-20T06:13:48.762Z,0.9
2017-04-20T06:14:59.209Z,0.96
2017-04-20T06:16:09.611Z,0.97
2017-04-20T06:17:19.954Z,1
2017-04-20T06:18:29.769Z,1.12
2017-04-20T06:20:11.688Z,1.15
2017-04-20T06:21:22.053Z,1.3
2017-04-20T06:22:32.177Z,1.29
2017-04-20T06:23:41.916Z,1.29
2017-04-20T06:24:51.673Z,1.32
2017-04-20T06:26:01.479Z,1.38
2017-04-20T06:27:11.907Z,1.51
2017-04-20T06:28:22.026Z,1.51
2017-04-20T06:29:31.754Z,1.64
2017-04-20T06:30:42.202Z,1.69
2017-04-20T06:31:51.977Z,1.79
2017-04-20T06:33:02.377Z,1.73
2017-04-20T06:34:12.725Z,1.79
2017-04-20T06:35:22.793Z,1.7
2017-04-20T06:36:32.569Z,1.69
2017-04-20T06:37:42.641Z,1.54
2017-04-20T06:38:53.126Z,1.55
2017-04-20T06:40:03.308Z,1.76
2017-04-20T06:41:13.073Z,1.74
2017-04-20T06:42:23.470Z,1.76
2017-04-20T06:43:33.677Z,1.72
2017-04-20T06:44:44.127Z,1.91
2017-04-20T06:45:53.909Z,1.85
2017-04-20T06:47:03.326Z,1.85
2017-04-20T06:48:13.098Z,1.8
2017-04-20T06:49:22.879Z,1.82
2017-04-20T06:50:33.392Z,1.85
2017-04-20T06:51:43.188Z,1.85
2017-04-20T06:52:52.924Z,1.87
2017-04-20T06:54:02.991Z,1.97
2017-04-20T06:55:12.711Z,1.97
2017-04-20T06:56:23.102Z,2.03
2017-04-20T06:57:32.892Z,2.1
2017-04-20T06:58:42.680Z,2.15
2017-04-20T06:59:52.762Z,2.18
2017-04-20T07:01:02.216Z,2.27
2017-04-20T07:02:12.621Z,2.27
2017-04-20T07:03:22.536Z,2.28
2017-04-20T07:04:32.346Z,2.26
2017-04-20T07:05:42.420Z,2.34
2017-04-20T07:06:52.171Z,2.31
2017-04-20T07:08:02.666Z,2.28
2017-04-20T07:09:12.460Z,2.33
2017-04-20T07:10:21.968Z,2.48
2017-04-20T07:11:32.059Z,2.37
2017-04-20T07:12:41.801Z,2.45
2017-04-20T07:13:51.899Z,2.46
2017-04-20T07:15:01.685Z,2.59
2017-04-20T07:16:11.447Z,2.62
2017-04-20T07:17:21.225Z,2.66
2017-04-20T07:18:31.018Z,2.74
2017-04-20T07:19:41.377Z,2.77
2017-04-20T07:20:51.102Z,2.82
2017-04-20T07:22:00.842Z,2.89
2017-04-20T07:23:10.903Z,2.91
2017-04-20T07:24:20.785Z,2.91
2017-04-20T07:25:30.477Z,2.87
2017-04-20T07:26:40.326Z,2.89
2017-04-20T07:27:50.641Z,2.94
2017-04-20T07:29:00.745Z,2.96
2017-04-20T07:30:10.330Z,2.85
2017-04-20T07:31:20.706Z,2.79
2017-04-20T07:32:30.763Z,2.79
2017-04-20T07:33:40.834Z,2.92
2017-04-20T07:34:50.912Z,3.08
2017-04-20T07:36:00.983Z,3.06
2017-04-20T07:37:11.528Z,3.15
2017-04-20T07:38:21.601Z,3.08
2017-04-20T07:39:31.428Z,3.13
2017-04-20T07:40:41.554Z,3.18
2017-04-20T07:41:51.630Z,3.21
2017-04-20T07:43:01.858Z,3.31
2017-04-20T07:44:11.620Z,3.4
2017-04-20T07:45:21.773Z,3.46
2017-04-20T07:46:31.508Z,3.5
2017-04-20T07:47:40.925Z,3.55
2017-04-20T07:48:51.309Z,3.68
2017-04-20T07:50:01.387Z,3.77
2017-04-20T07:51:11.442Z,3.83
2017-04-20T07:52:21.563Z,3.97
2017-04-20T07:53:31.794Z,4.05
2017-04-20T07:54:42.220Z,4.12
2017-04-20T07:55:52.303Z,4.25
2017-04-20T07:57:01.781Z,4.31
2017-04-20T07:58:11.232Z,4.43
2017-04-20T07:59:21.137Z,4.41
2017-04-20T08:00:31.195Z,4.43
2017-04-20T08:01:41.577Z,4.68
2017-04-20T08:02:52.273Z,5.18
2017-04-20T08:04:02.747Z,6.03
2017-04-20T08:05:12.877Z,6.82
2017-04-20T08:06:23.783Z,7.58
2017-04-20T08:07:34.128Z,8.13
2017-04-20T08:08:44.801Z,8.63
2017-04-20T08:09:56.461Z,9.27
2017-04-20T08:11:06.904Z,9.67
2017-04-20T08:12:17.658Z,10.17
2017-04-20T08:13:28.376Z,10.66
2017-04-20T08:14:38.729Z,11.21
2017-04-20T08:15:49.429Z,11.38
2017-04-20T08:17:00.550Z,11.74
2017-04-20T08:18:11.255Z,12.05
2017-04-20T08:19:21.959Z,12.37
2017-04-20T08:20:32.659Z,12.62
2017-04-20T08:21:43.035Z,12.9
2017-04-20T08:22:54.738Z,13.41
2017-04-20T08:24:05.779Z,13.86
2017-04-20T08:25:16.469Z,14.18
2017-04-20T08:26:26.881Z,14.52
2017-04-20T08:27:37.711Z,14.78
2017-04-20T08:28:47.521Z,15
2017-04-20T08:29:59.260Z,15.09
2017-04-20T08:31:10.036Z,15.11
2017-04-20T08:32:20.438Z,15.27
2017-04-20T08:33:31.168Z,15.33
2017-04-20T08:34:42.199Z,15.61
2017-04-20T08:35:53.070Z,15.84
2017-04-20T08:37:03.621Z,16.2
2017-04-20T08:38:13.833Z,16.51
2017-04-20T08:39:25.153Z,16.46
2017-04-20T08:40:36.518Z,16.8
2017-04-20T08:41:47.234Z,16.75
2017-04-20T08:42:57.683Z,16.74
2017-04-20T08:44:08.129Z,16.72
2017-04-20T08:45:18.842Z,16.84
2017-04-20T08:46:29.549Z,16.8
2017-04-20T08:47:40.222Z,16.87
2017-04-20T08:48:50.955Z,17.08
2017-04-20T08:50:01.688Z,16.69
2017-04-20T08:51:11.596Z,16.44
2017-04-20T08:52:21.676Z,16.09
2017-04-20T08:53:32.893Z,16.24
2017-04-20T08:54:43.642Z,16.31
2017-04-20T08:55:54.445Z,16.36
2017-04-20T08:57:04.944Z,16.49
2017-04-20T08:58:15.958Z,16.47
2017-04-20T08:59:27.249Z,16.39
2017-04-20T09:00:38.063Z,16.01
2017-04-20T09:01:48.493Z,15.4
2017-04-20T09:03:00.164Z,15.21
2017-04-20T09:04:10.968Z,14.6
2017-04-20T09:05:21.994Z,14.14
2017-04-20T09:06:33.677Z,14.14
2017-04-20T09:07:44.566Z,14.45
2017-04-20T09:08:55.170Z,14.72
2017-04-20T09:10:06.042Z,15.08
2017-04-20T09:11:16.392Z,15.4
2017-04-20T09:12:26.375Z,15.58
2017-04-20T09:13:36.503Z,15.82
2017-04-20T09:14:46.945Z,16.35
2017-04-20T09:15:57.436Z,16.59
2017-04-20T09:17:08.209Z,16.68
2017-04-20T09:18:18.908Z,16.98
2017-04-20T09:19:29.645Z,17.49
2017-04-20T09:20:40.447Z,17.58
2017-04-20T09:21:50.827Z,17.64
2017-04-20T09:23:01.860Z,17.87
2017-04-20T09:24:12.594Z,18.1
2017-04-20T09:25:23.327Z,18.32
2017-04-20T09:26:34.135Z,18.34
2017-04-20T09:27:44.539Z,18.63
2017-04-20T09:28:55.555Z,18.69
2017-04-20T09:30:06.274Z,18.69
2017-04-20T09:31:16.780Z,19.02
2017-04-20T09:32:27.668Z,19.13
2017-04-20T09:33:38.512Z,19.45
2017-04-20T09:34:48.903Z,19.65
2017-04-20T09:35:59.742Z,19.68
2017-04-20T09:37:09.820Z,19.58
2017-04-20T09:38:20.260Z,19.28
2017-04-20T09:39:31.631Z,19.33
2017-04-20T09:40:42.774Z,19.45
2017-04-20T09:41:53.288Z,19.68
2017-04-20T09:43:04.002Z,19.85
2017-04-20T09:44:14.743Z,20.16
2017-04-20T09:45:25.162Z,20
2017-04-20T09:46:35.802Z,19.76
2017-04-20T09:47:45.852Z,19.5
2017-04-20T09:48:55.959Z,19.67
2017-04-20T09:50:06.733Z,19.3
2017-04-20T09:51:17.576Z,18.71
2017-04-20T09:52:28.590Z,18.52
2017-04-20T09:53:39.551Z,18.02
2017-04-20T09:54:50.257Z,17.05
2017-04-20T09:56:01.118Z,16.09
2017-04-20T09:57:11.846Z,15.58
2017-04-20T09:58:22.770Z,15.08
2017-04-20T09:59:34.759Z,15.06
2017-04-20T10:00:46.149Z,15.27
2017-04-20T10:01:56.908Z,15.38
2017-04-20T10:03:08.592Z,15.27
2017-04-20T10:04:19.398Z,15.57
2017-04-20T10:05:29.777Z,15.51
2017-04-20T10:06:40.228Z,15.69
2017-04-20T10:07:51.045Z,15.82
2017-04-20T10:09:01.921Z,15.94
2017-04-20T10:10:13.015Z,15.99
2017-04-20T10:11:24.421Z,16.2
2017-04-20T10:12:35.186Z,16.43
2017-04-20T10:13:45.905Z,16.47
2017-04-20T10:14:56.283Z,16.76
2017-04-20T10:16:07.058Z,16.9
2017-04-20T10:17:17.543Z,17.08
2017-04-20T10:18:28.262Z,17.38
2017-04-20T10:19:38.710Z,17.61
2017-04-20T10:20:49.471Z,17.77
2017-04-20T10:22:00.190Z,17.68
2017-04-20T10:23:10.377Z,17.62
2017-04-20T10:24:21.097Z,17.45
2017-04-20T10:25:31.601Z,17.19
2017-04-20T10:26:42.355Z,17.16
2017-04-20T10:27:53.528Z,17.39
2017-04-20T10:29:04.261Z,17.73
2017-04-20T10:30:15.044Z,17.91
2017-04-20T10:31:25.788Z,18
2017-04-20T10:32:36.190Z,18.1
2017-04-20T10:33:47.859Z,18.34
2017-04-20T10:34:57.876Z,18.32
2017-04-20T10:36:08.266Z,18.17
2017-04-20T10:37:18.709Z,17.87
2017-04-20T10:38:29.544Z,17.3
2017-04-20T10:39:40.241Z,16.86
2017-04-20T10:40:51.171Z,16.44
2017-04-20T10:42:02.867Z,16.17
2017-04-20T10:43:13.289Z,15.61
2017-04-20T10:44:24.666Z,15.29
2017-04-20T10:45:35.694Z,14.93
2017-04-20T10:46:46.488Z,14.56
2017-04-20T10:47:57.253Z,14.25
2017-04-20T10:49:08.940Z,13.82
2017-04-20T10:50:19.672Z,13.44
2017-04-20T10:51:29.298Z,13.08
2017-04-20T10:52:39.766Z,12.68
2017-04-20T10:53:50.494Z,12.38
2017-04-20T10:55:00.924Z,12.01
2017-04-20T10:56:11.306Z,11.62
2017-04-20T10:57:21.637Z,11.64
2017-04-20T10:58:32.079Z,11.58
2017-04-20T10:59:43.071Z,11.64
2017-04-20T11:00:53.132Z,11.48
2017-04-20T11:02:03.924Z,11.35
2017-04-20T11:03:14.619Z,11.17
2017-04-20T11:04:25.001Z,10.98
2017-04-20T11:05:35.475Z,10.84
2017-04-20T11:06:47.161Z,10.66
2017-04-20T11:07:58.496Z,10.65
2017-04-20T11:09:09.523Z,10.73
2017-04-20T11:10:19.664Z,11.02
2017-04-20T11:11:30.404Z,11.4
2017-04-20T11:12:41.178Z,11.84
2017-04-20T11:13:51.995Z,12.09
2017-04-20T11:15:03.132Z,12.52
2017-04-20T11:16:13.905Z,12.72
2017-04-20T11:17:24.276Z,12.89
2017-04-20T11:18:34.970Z,13.15
2017-04-20T11:19:45.716Z,13.37
2017-04-20T11:20:56.900Z,13.59
2017-04-20T11:22:07.266Z,13.84
2017-04-20T11:23:17.715Z,14.03
2017-04-20T11:24:28.498Z,14.09
2017-04-20T11:25:38.890Z,14.06
2017-04-20T11:26:49.619Z,14.22
2017-04-20T11:28:00.364Z,14.56
2017-04-20T11:29:10.795Z,14.65
2017-04-20T11:30:21.519Z,14.81
2017-04-20T11:31:31.912Z,15.06
2017-04-20T11:32:42.756Z,15.25
2017-04-20T11:33:53.242Z,15.27
2017-04-20T11:35:03.961Z,15.51
2017-04-20T11:36:15.630Z,15.57
2017-04-20T11:37:26.593Z,15.88
2017-04-20T11:38:37.595Z,16.06
2017-04-20T11:39:48.147Z,15.78
2017-04-20T11:40:58.595Z,15.73
2017-04-20T11:42:09.365Z,15.58
2017-04-20T11:43:19.615Z,15.2
2017-04-20T11:44:30.008Z,15.13
2017-04-20T11:45:40.368Z,14.65
2017-04-20T11:46:51.152Z,14.11
2017-04-20T11:48:02.815Z,13.86
2017-04-20T11:49:13.508Z,13.84
2017-04-20T11:50:24.510Z,13.63
2017-04-20T11:51:35.249Z,13.56
2017-04-20T11:52:45.605Z,13.74
2017-04-20T11:53:56.300Z,13.63
2017-04-20T11:55:07.034Z,13.61
2017-04-20T11:56:17.777Z,13.38
2017-04-20T11:57:28.474Z,13.44
2017-04-20T11:58:39.212Z,13.31
2017-04-20T11:59:49.937Z,13.16
2017-04-20T12:01:00.327Z,13.06
2017-04-20T12:02:12.044Z,12.81
2017-04-20T12:03:22.769Z,12.57
2017-04-20T12:04:33.689Z,12.41
2017-04-20T12:05:44.379Z,12.23
2017-04-20T12:06:54.744Z,12.24
2017-04-20T12:08:06.739Z,12.04
2017-04-20T12:09:17.111Z,12.02
2017-04-20T12:10:27.553Z,11.89
2017-04-20T12:11:37.267Z,11.76
2017-04-20T12:12:47.704Z,11.66
2017-04-20T12:13:58.399Z,11.4
2017-04-20T12:15:08.438Z,11.4
2017-04-20T12:16:19.396Z,11.2
2017-04-20T12:17:29.766Z,11.12
2017-04-20T12:18:40.256Z,11.43
2017-04-20T12:19:51.064Z,11.42
2017-04-20T12:21:01.950Z,11.76
2017-04-20T12:22:11.986Z,12.19
2017-04-20T12:23:22.724Z,12.57
2017-04-20T12:24:33.120Z,12.89
2017-04-20T12:25:43.777Z,13.26
2017-04-20T12:26:54.528Z,13.51
2017-04-20T12:28:04.571Z,13.7
2017-04-20T12:29:15.386Z,13.79
2017-04-20T12:30:25.802Z,13.71
2017-04-20T12:31:36.818Z,13.56
2017-04-20T12:32:47.170Z,13.4
2017-04-20T12:33:57.530Z,13.37
2017-04-20T12:35:08.319Z,13.36
2017-04-20T12:36:18.786Z,13.41
2017-04-20T12:37:29.512Z,13.51
2017-04-20T12:38:40.294Z,13.59
2017-04-20T12:39:50.694Z,13.74
2017-04-20T12:41:01.419Z,13.63
2017-04-20T12:42:11.787Z,13.44
2017-04-20T12:43:22.590Z,13.13
2017-04-20T12:44:33.430Z,13.01
2017-04-20T12:45:44.119Z,12.84
2017-04-20T12:46:54.486Z,12.62
2017-04-20T12:48:05.240Z,12.56
2017-04-20T12:49:16.225Z,12.31
2017-04-20T12:50:26.958Z,12.08
2017-04-20T12:51:37.673Z,12.13
2017-04-20T12:52:48.428Z,12.09
2017-04-20T12:53:58.914Z,12.07
2017-04-20T12:55:10.865Z,12.07
2017-04-20T12:56:21.295Z,12.09
2017-04-20T12:57:32.037Z,12.19
2017-04-20T12:58:42.823Z,12.24
2017-04-20T12:59:53.572Z,12.26
2017-04-20T13:01:04.652Z,12.22
2017-04-20T13:02:15.079Z,12.15
2017-04-20T13:03:25.842Z,12.09
2017-04-20T13:04:36.643Z,12.24
2017-04-20T13:05:47.472Z,12.13
2017-04-20T13:06:58.275Z,12.26
2017-04-20T13:08:09.153Z,12.24
2017-04-20T13:09:20.249Z,12.31
2017-04-20T13:10:30.649Z,12.31
2017-04-20T13:11:41.109Z,12.37
2017-04-20T13:12:52.229Z,12.41
2017-04-20T13:14:03.065Z,12.35
2017-04-20T13:15:13.872Z,12.44
2017-04-20T13:16:24.673Z,12.35
2017-04-20T13:17:35.992Z,12.35
2017-04-20T13:18:46.711Z,12.27
2017-04-20T13:19:57.394Z,12.19
2017-04-20T13:21:08.162Z,12.23
2017-04-20T13:22:19.161Z,12.15
2017-04-20T13:23:30.140Z,12.26
2017-04-20T13:24:41.154Z,12.22
2017-04-20T13:25:52.478Z,12.29
2017-04-20T13:27:03.198Z,12.26
2017-04-20T13:28:13.560Z,12.26
2017-04-20T13:29:23.935Z,12.35
2017-04-20T13:30:34.641Z,12.41
2017-04-20T13:31:46.322Z,12.45
2017-04-20T13:32:56.694Z,12.44
2017-04-20T13:34:07.389Z,12.44
2017-04-20T13:35:17.760Z,12.24
2017-04-20T13:36:28.812Z,12.11
2017-04-20T13:37:39.525Z,12.19
2017-04-20T13:38:50.281Z,12.02
2017-04-20T13:40:00.059Z,11.91
2017-04-20T13:41:10.340Z,11.9
2017-04-20T13:42:20.982Z,11.98
2017-04-20T13:43:31.061Z,11.89
2017-04-20T13:44:40.976Z,11.87
2017-04-20T13:45:51.115Z,11.77
2017-04-20T13:47:01.193Z,11.8
2017-04-20T13:48:11.710Z,11.74
2017-04-20T13:49:21.232Z,11.74
2017-04-20T13:50:31.084Z,11.66
2017-04-20T13:51:41.176Z,11.57
2017-04-20T13:52:50.918Z,11.48
2017-04-20T13:54:01.291Z,11.35
2017-04-20T13:55:11.043Z,11.5
2017-04-20T13:56:21.131Z,11.39
2017-04-20T13:57:31.445Z,11.48
2017-04-20T13:58:41.317Z,11.38
2017-04-20T13:59:51.438Z,11.27
2017-04-20T14:01:01.619Z,11.17
2017-04-20T14:02:11.871Z,11.13
2017-04-20T14:03:22.052Z,11.09
2017-04-20T14:04:32.150Z,11.13
2017-04-20T14:05:42.553Z,11.03
2017-04-20T14:06:52.321Z,10.9
2017-04-20T14:08:02.448Z,10.91
2017-04-20T14:09:12.202Z,10.83
2017-04-20T14:10:21.974Z,10.79
2017-04-20T14:11:32.057Z,10.77
2017-04-20T14:12:41.890Z,10.75
2017-04-20T14:13:52.075Z,10.7
2017-04-20T14:15:02.199Z,10.66
2017-04-20T14:16:11.622Z,10.59
2017-04-20T14:17:21.684Z,10.63
2017-04-20T14:18:31.791Z,10.77
2017-04-20T14:19:41.558Z,10.8
2017-04-20T14:20:51.820Z,10.85
2017-04-20T14:22:01.587Z,10.87
2017-04-20T14:23:12.036Z,10.84
2017-04-20T14:24:21.864Z,10.87
2017-04-20T14:25:32.002Z,10.84
2017-04-20T14:26:42.096Z,10.92
2017-04-20T14:27:52.242Z,10.94
2017-04-20T14:29:02.644Z,10.91
2017-04-20T14:30:12.738Z,10.84
2017-04-20T14:31:22.281Z,10.88
2017-04-20T14:32:32.373Z,10.84
2017-04-20T14:33:42.204Z,10.91
2017-04-20T14:34:52.762Z,10.87
2017-04-20T14:36:03.225Z,10.88
2017-04-20T14:37:12.642Z,10.87
2017-04-20T14:38:22.759Z,10.91
2017-04-20T14:39:32.873Z,10.91
2017-04-20T14:40:42.605Z,10.77
2017-04-20T14:41:52.700Z,10.73
2017-04-20T14:43:02.954Z,10.69
2017-04-20T14:44:13.042Z,10.65
2017-04-20T14:45:22.918Z,10.69
2017-04-20T14:46:33.479Z,10.7
2017-04-20T14:47:43.655Z,10.67
2017-04-20T14:48:53.746Z,10.72
2017-04-20T14:50:03.236Z,10.79
2017-04-20T14:51:13.340Z,10.69
2017-04-20T14:52:23.854Z,10.73
2017-04-20T14:53:33.961Z,10.67
2017-04-20T14:54:44.066Z,10.69
2017-04-20T14:55:54.214Z,10.67
2017-04-20T14:57:04.318Z,10.58
2017-04-20T14:58:14.392Z,10.58
2017-04-20T14:59:24.530Z,10.55
2017-04-20T15:00:34.623Z,10.54
2017-04-20T15:01:44.417Z,10.54
2017-04-20T15:02:54.215Z,10.54
2017-04-20T15:04:04.327Z,10.59
2017-04-20T15:05:14.415Z,10.65
2017-04-20T15:06:24.570Z,10.54
2017-04-20T15:07:34.440Z,10.57
2017-04-20T15:08:44.584Z,10.36
2017-04-20T15:09:54.318Z,10.32
2017-04-20T15:11:04.206Z,10.27
2017-04-20T15:12:14.381Z,10.39
2017-04-20T15:13:23.857Z,10.33
2017-04-20T15:14:34.022Z,10.33
2017-04-20T15:15:44.080Z,10.29